sensor_id;sensor_type;location;lat;lon;timestamp;pressure;altitude;pressure_sealevel;temperature;humidity
4449;BME280;2237;51.870;6.160;2023-04-24T00:00:57;99824.91;;;11.57;100.00
4449;BME280;2237;51.870;6.160;2023-04-24T00:03:25;99830.75;;;11.62;100.00
4449;BME280;2237;51.870;6.160;2023-04-24T00:05:52;99832.38;;;11.44;100.00
4449;BME280;2237;51.870;6.160;2023-04-24T00:08:18;99830.13;;;11.57;100.00
4449;BME280;2237;51.870;6.160;2023-04-24T00:10:46;99832.66;;;11.58;100.00
4449;BME280;2237;51.870;6.160;2023-04-24T00:13:12;99834.84;;;11.47;100.00
4449;BME280;2237;51.870;6.160;2023-04-24T00:15:38;99826.31;;;11.44;100.00
4449;BME280;2237;51.870;6.160;2023-04-24T00:18:05;99833.44;;;11.40;100.00
4449;BME280;2237;51.870;6.160;2023-04-24T00:20:31;99842.69;;;11.47;100.00
4449;BME280;2237;51.870;6.160;2023-04-24T00:22:59;99838.28;;;11.49;100.00
4449;BME280;2237;51.870;6.160;2023-04-24T00:25:25;99825.75;;;11.57;100.00
4449;BME280;2237;51.870;6.160;2023-04-24T00:27:52;99839.56;;;11.59;100.00
4449;BME280;2237;51.870;6.160;2023-04-24T00:30:18;99838.59;;;11.62;100.00
4449;BME280;2237;51.870;6.160;2023-04-24T00:32:45;99838.97;;;11.53;100.00
4449;BME280;2237;51.870;6.160;2023-04-24T00:35:11;99844.00;;;11.57;100.00
4449;BME280;2237;51.870;6.160;2023-04-24T00:37:37;99839.81;;;11.53;100.00
4449;BME280;2237;51.870;6.160;2023-04-24T00:40:04;99844.44;;;11.47;100.00
4449;BME280;2237;51.870;6.160;2023-04-24T00:42:31;99846.75;;;11.54;100.00
4449;BME280;2237;51.870;6.160;2023-04-24T00:44:58;99836.44;;;11.51;100.00
4449;BME280;2237;51.870;6.160;2023-04-24T00:47:25;99848.81;;;11.46;100.00
4449;BME280;2237;51.870;6.160;2023-04-24T00:49:51;99848.28;;;11.58;100.00
4449;BME280;2237;51.870;6.160;2023-04-24T00:52:18;99847.47;;;11.58;100.00
4449;BME280;2237;51.870;6.160;2023-04-24T00:54:44;99843.44;;;11.71;100.00
4449;BME280;2237;51.870;6.160;2023-04-24T00:57:12;99842.69;;;11.67;100.00
4449;BME280;2237;51.870;6.160;2023-04-24T00:59:39;99840.47;;;11.58;100.00
4449;BME280;2237;51.870;6.160;2023-04-24T01:02:09;99835.47;;;11.54;100.00
4449;BME280;2237;51.870;6.160;2023-04-24T01:04:37;99844.19;;;11.53;100.00
4449;BME280;2237;51.870;6.160;2023-04-24T01:07:04;99835.13;;;11.41;100.00
4449;BME280;2237;51.870;6.160;2023-04-24T01:09:40;99841.06;;;11.45;100.00
4449;BME280;2237;51.870;6.160;2023-04-24T01:12:10;99835.00;;;11.44;100.00
4449;BME280;2237;51.870;6.160;2023-04-24T01:14:37;99836.69;;;11.45;100.00
4449;BME280;2237;51.870;6.160;2023-04-24T01:17:03;99845.16;;;11.50;100.00
4449;BME280;2237;51.870;6.160;2023-04-24T01:19:29;99839.03;;;11.51;100.00
4449;BME280;2237;51.870;6.160;2023-04-24T01:21:58;99831.34;;;11.48;100.00
4449;BME280;2237;51.870;6.160;2023-04-24T01:24:25;99845.28;;;11.47;100.00
4449;BME280;2237;51.870;6.160;2023-04-24T01:26:51;99839.16;;;11.48;100.00
4449;BME280;2237;51.870;6.160;2023-04-24T01:29:18;99842.94;;;11.41;100.00
4449;BME280;2237;51.870;6.160;2023-04-24T01:31:45;99851.97;;;11.32;100.00
4449;BME280;2237;51.870;6.160;2023-04-24T01:34:12;99844.63;;;11.42;100.00
4449;BME280;2237;51.870;6.160;2023-04-24T01:36:39;99847.16;;;11.44;100.00
4449;BME280;2237;51.870;6.160;2023-04-24T01:39:05;99845.13;;;11.52;100.00
4449;BME280;2237;51.870;6.160;2023-04-24T01:41:32;99841.91;;;11.45;100.00
4449;BME280;2237;51.870;6.160;2023-04-24T01:43:59;99848.47;;;11.33;100.00
4449;BME280;2237;51.870;6.160;2023-04-24T01:46:26;99850.34;;;11.30;100.00
4449;BME280;2237;51.870;6.160;2023-04-24T01:48:52;99854.03;;;11.46;100.00
4449;BME280;2237;51.870;6.160;2023-04-24T01:51:19;99857.88;;;11.38;100.00
4449;BME280;2237;51.870;6.160;2023-04-24T01:53:45;99859.88;;;11.31;100.00
4449;BME280;2237;51.870;6.160;2023-04-24T01:56:12;99849.31;;;11.34;100.00
4449;BME280;2237;51.870;6.160;2023-04-24T01:58:38;99858.81;;;11.35;100.00
4449;BME280;2237;51.870;6.160;2023-04-24T02:01:06;99847.44;;;11.38;100.00
4449;BME280;2237;51.870;6.160;2023-04-24T02:03:32;99852.84;;;11.33;100.00
4449;BME280;2237;51.870;6.160;2023-04-24T02:05:59;99853.94;;;11.27;100.00
4449;BME280;2237;51.870;6.160;2023-04-24T02:08:25;99848.72;;;11.27;100.00
4449;BME280;2237;51.870;6.160;2023-04-24T02:10:52;99849.44;;;11.31;100.00
4449;BME280;2237;51.870;6.160;2023-04-24T02:13:18;99846.69;;;11.14;100.00
4449;BME280;2237;51.870;6.160;2023-04-24T02:15:44;99854.84;;;11.05;100.00
4449;BME280;2237;51.870;6.160;2023-04-24T02:18:11;99851.41;;;11.26;100.00
4449;BME280;2237;51.870;6.160;2023-04-24T02:20:38;99862.59;;;11.06;100.00
4449;BME280;2237;51.870;6.160;2023-04-24T02:23:05;99862.56;;;11.08;100.00
4449;BME280;2237;51.870;6.160;2023-04-24T02:25:31;99854.84;;;11.05;100.00
4449;BME280;2237;51.870;6.160;2023-04-24T02:27:57;99863.56;;;11.04;100.00
4449;BME280;2237;51.870;6.160;2023-04-24T02:30:24;99862.38;;;11.12;100.00
4449;BME280;2237;51.870;6.160;2023-04-24T02:32:50;99860.69;;;11.11;100.00
4449;BME280;2237;51.870;6.160;2023-04-24T02:35:17;99859.03;;;11.09;100.00
4449;BME280;2237;51.870;6.160;2023-04-24T02:37:44;99863.56;;;11.04;100.00
4449;BME280;2237;51.870;6.160;2023-04-24T02:40:11;99862.13;;;10.97;100.00
4449;BME280;2237;51.870;6.160;2023-04-24T02:42:37;99852.50;;;10.99;100.00
4449;BME280;2237;51.870;6.160;2023-04-24T02:45:04;99867.03;;;11.04;100.00
4449;BME280;2237;51.870;6.160;2023-04-24T02:47:31;99864.34;;;10.84;100.00
4449;BME280;2237;51.870;6.160;2023-04-24T02:49:57;99860.44;;;10.96;100.00
4449;BME280;2237;51.870;6.160;2023-04-24T02:52:23;99853.38;;;10.98;100.00
4449;BME280;2237;51.870;6.160;2023-04-24T02:54:50;99865.44;;;11.00;100.00
4449;BME280;2237;51.870;6.160;2023-04-24T02:57:16;99859.53;;;10.97;100.00
4449;BME280;2237;51.870;6.160;2023-04-24T02:59:42;99859.41;;;11.00;100.00
4449;BME280;2237;51.870;6.160;2023-04-24T03:02:09;99862.13;;;10.97;100.00
4449;BME280;2237;51.870;6.160;2023-04-24T03:04:36;99848.06;;;11.01;100.00
4449;BME280;2237;51.870;6.160;2023-04-24T03:07:03;99852.53;;;10.97;100.00
4449;BME280;2237;51.870;6.160;2023-04-24T03:09:30;99869.44;;;10.87;100.00
4449;BME280;2237;51.870;6.160;2023-04-24T03:11:57;99877.19;;;10.67;100.00
4449;BME280;2237;51.870;6.160;2023-04-24T03:14:24;99861.75;;;10.84;100.00
4449;BME280;2237;51.870;6.160;2023-04-24T03:16:50;99860.25;;;10.78;100.00
4449;BME280;2237;51.870;6.160;2023-04-24T03:19:17;99862.09;;;10.75;100.00
4449;BME280;2237;51.870;6.160;2023-04-24T03:21:43;99864.94;;;10.69;100.00
4449;BME280;2237;51.870;6.160;2023-04-24T03:24:10;99853.13;;;10.60;100.00
4449;BME280;2237;51.870;6.160;2023-04-24T03:26:36;99866.38;;;10.54;100.00
4449;BME280;2237;51.870;6.160;2023-04-24T03:29:02;99863.31;;;10.66;100.00
4449;BME280;2237;51.870;6.160;2023-04-24T03:31:29;99871.53;;;10.56;100.00
4449;BME280;2237;51.870;6.160;2023-04-24T03:33:55;99865.78;;;10.69;100.00
4449;BME280;2237;51.870;6.160;2023-04-24T03:36:22;99870.53;;;10.82;100.00
4449;BME280;2237;51.870;6.160;2023-04-24T03:38:48;99878.47;;;10.78;100.00
4449;BME280;2237;51.870;6.160;2023-04-24T03:41:14;99873.38;;;10.75;100.00
4449;BME280;2237;51.870;6.160;2023-04-24T03:43:41;99870.25;;;10.66;100.00
4449;BME280;2237;51.870;6.160;2023-04-24T03:46:07;99879.91;;;10.64;100.00
4449;BME280;2237;51.870;6.160;2023-04-24T03:48:35;99877.00;;;10.71;100.00
4449;BME280;2237;51.870;6.160;2023-04-24T03:51:01;99879.47;;;10.74;100.00
4449;BME280;2237;51.870;6.160;2023-04-24T03:53:28;99886.16;;;10.82;100.00
4449;BME280;2237;51.870;6.160;2023-04-24T03:55:55;99885.72;;;10.70;100.00
4449;BME280;2237;51.870;6.160;2023-04-24T03:58:21;99881.13;;;10.77;100.00
4449;BME280;2237;51.870;6.160;2023-04-24T04:00:47;99880.44;;;10.72;100.00
4449;BME280;2237;51.870;6.160;2023-04-24T04:03:14;99875.25;;;10.72;100.00
4449;BME280;2237;51.870;6.160;2023-04-24T04:05:41;99888.34;;;10.70;100.00
4449;BME280;2237;51.870;6.160;2023-04-24T04:08:07;99881.59;;;10.65;100.00
4449;BME280;2237;51.870;6.160;2023-04-24T04:10:33;99884.22;;;10.65;100.00
4449;BME280;2237;51.870;6.160;2023-04-24T04:13:00;99891.91;;;10.68;100.00
4449;BME280;2237;51.870;6.160;2023-04-24T04:15:26;99892.34;;;10.79;100.00
4449;BME280;2237;51.870;6.160;2023-04-24T04:17:52;99899.19;;;10.82;100.00
4449;BME280;2237;51.870;6.160;2023-04-24T04:20:19;99901.84;;;10.80;100.00
4449;BME280;2237;51.870;6.160;2023-04-24T04:22:45;99897.56;;;10.79;100.00
4449;BME280;2237;51.870;6.160;2023-04-24T04:25:11;99906.03;;;10.84;100.00
4449;BME280;2237;51.870;6.160;2023-04-24T04:27:39;99902.69;;;10.81;100.00
4449;BME280;2237;51.870;6.160;2023-04-24T04:30:08;99904.78;;;10.71;100.00
4449;BME280;2237;51.870;6.160;2023-04-24T04:32:34;99901.41;;;10.69;100.00
4449;BME280;2237;51.870;6.160;2023-04-24T04:35:01;99902.25;;;10.69;100.00
4449;BME280;2237;51.870;6.160;2023-04-24T04:37:31;99909.94;;;10.72;100.00
4449;BME280;2237;51.870;6.160;2023-04-24T04:39:57;99910.38;;;10.84;100.00
4449;BME280;2237;51.870;6.160;2023-04-24T04:42:25;99907.00;;;10.82;100.00
4449;BME280;2237;51.870;6.160;2023-04-24T04:44:51;99911.53;;;10.76;100.00
4449;BME280;2237;51.870;6.160;2023-04-24T04:47:18;99902.06;;;10.74;100.00
4449;BME280;2237;51.870;6.160;2023-04-24T04:49:47;99902.91;;;10.74;100.00
4449;BME280;2237;51.870;6.160;2023-04-24T04:52:14;99904.06;;;10.91;100.00
4449;BME280;2237;51.870;6.160;2023-04-24T04:54:40;99898.66;;;10.95;100.00
4449;BME280;2237;51.870;6.160;2023-04-24T04:57:07;99893.97;;;11.03;100.00
4449;BME280;2237;51.870;6.160;2023-04-24T04:59:34;99899.88;;;11.08;100.00
4449;BME280;2237;51.870;6.160;2023-04-24T05:02:01;99901.34;;;10.94;100.00
4449;BME280;2237;51.870;6.160;2023-04-24T05:04:27;99894.84;;;11.04;100.00
4449;BME280;2237;51.870;6.160;2023-04-24T05:06:54;99889.38;;;11.10;100.00
4449;BME280;2237;51.870;6.160;2023-04-24T05:09:20;99901.63;;;11.08;100.00
4449;BME280;2237;51.870;6.160;2023-04-24T05:11:46;99897.94;;;11.13;100.00
4449;BME280;2237;51.870;6.160;2023-04-24T05:14:13;99887.38;;;10.95;100.00
4449;BME280;2237;51.870;6.160;2023-04-24T05:16:39;99897.56;;;11.01;100.00
4449;BME280;2237;51.870;6.160;2023-04-24T05:19:06;99890.41;;;11.06;100.00
4449;BME280;2237;51.870;6.160;2023-04-24T05:21:33;99895.88;;;11.21;100.00
4449;BME280;2237;51.870;6.160;2023-04-24T05:23:59;99898.91;;;11.11;100.00
4449;BME280;2237;51.870;6.160;2023-04-24T05:26:25;99898.44;;;10.78;100.00
4449;BME280;2237;51.870;6.160;2023-04-24T05:28:52;99906.34;;;10.76;100.00
4449;BME280;2237;51.870;6.160;2023-04-24T05:31:18;99910.69;;;10.98;100.00
4449;BME280;2237;51.870;6.160;2023-04-24T05:33:44;99907.63;;;11.10;100.00
4449;BME280;2237;51.870;6.160;2023-04-24T05:36:11;99903.19;;;11.12;100.00
4449;BME280;2237;51.870;6.160;2023-04-24T05:38:37;99907.50;;;10.91;100.00
4449;BME280;2237;51.870;6.160;2023-04-24T05:41:03;99908.41;;;10.90;100.00
4449;BME280;2237;51.870;6.160;2023-04-24T05:43:30;99916.22;;;10.90;100.00
4449;BME280;2237;51.870;6.160;2023-04-24T05:45:56;99917.13;;;10.89;100.00
4449;BME280;2237;51.870;6.160;2023-04-24T05:48:23;99919.59;;;10.92;100.00
4449;BME280;2237;51.870;6.160;2023-04-24T05:50:49;99915.81;;;10.77;100.00
4449;BME280;2237;51.870;6.160;2023-04-24T05:53:16;99916.97;;;10.70;100.00
4449;BME280;2237;51.870;6.160;2023-04-24T05:55:43;99922.00;;;10.75;100.00
4449;BME280;2237;51.870;6.160;2023-04-24T05:58:10;99929.69;;;10.55;100.00
4449;BME280;2237;51.870;6.160;2023-04-24T06:00:36;99931.22;;;10.60;100.00
4449;BME280;2237;51.870;6.160;2023-04-24T06:03:02;99939.16;;;10.57;100.00
4449;BME280;2237;51.870;6.160;2023-04-24T06:05:30;99931.41;;;10.79;100.00
4449;BME280;2237;51.870;6.160;2023-04-24T06:07:57;99940.19;;;10.76;100.00
4449;BME280;2237;51.870;6.160;2023-04-24T06:10:23;99941.31;;;10.69;100.00
4449;BME280;2237;51.870;6.160;2023-04-24T06:12:49;99942.19;;;10.68;100.00
4449;BME280;2237;51.870;6.160;2023-04-24T06:15:16;99946.44;;;10.71;100.00
4449;BME280;2237;51.870;6.160;2023-04-24T06:17:42;99953.47;;;10.69;100.00
4449;BME280;2237;51.870;6.160;2023-04-24T06:20:09;99954.66;;;10.84;100.00
4449;BME280;2237;51.870;6.160;2023-04-24T06:22:37;99955.00;;;10.98;100.00
4449;BME280;2237;51.870;6.160;2023-04-24T06:25:03;99953.44;;;10.94;100.00
4449;BME280;2237;51.870;6.160;2023-04-24T06:27:30;99962.22;;;10.91;100.00
4449;BME280;2237;51.870;6.160;2023-04-24T06:29:56;99966.72;;;10.86;100.00
4449;BME280;2237;51.870;6.160;2023-04-24T06:32:23;99965.19;;;11.04;100.00
4449;BME280;2237;51.870;6.160;2023-04-24T06:34:51;99969.38;;;11.08;100.00
4449;BME280;2237;51.870;6.160;2023-04-24T06:37:19;99970.16;;;11.10;100.00
4449;BME280;2237;51.870;6.160;2023-04-24T06:39:46;99974.97;;;11.20;100.00
4449;BME280;2237;51.870;6.160;2023-04-24T06:42:12;99975.50;;;11.07;100.00
4449;BME280;2237;51.870;6.160;2023-04-24T06:44:38;99974.97;;;11.20;100.00
4449;BME280;2237;51.870;6.160;2023-04-24T06:47:09;99977.94;;;11.11;100.00
4449;BME280;2237;51.870;6.160;2023-04-24T06:49:37;99971.00;;;11.33;100.00
4449;BME280;2237;51.870;6.160;2023-04-24T06:52:03;99982.81;;;11.42;100.00
4449;BME280;2237;51.870;6.160;2023-04-24T06:54:31;99974.50;;;11.54;100.00
4449;BME280;2237;51.870;6.160;2023-04-24T06:56:58;99979.44;;;11.40;100.00
4449;BME280;2237;51.870;6.160;2023-04-24T06:59:26;99980.25;;;11.41;100.00
4449;BME280;2237;51.870;6.160;2023-04-24T07:01:54;99988.53;;;11.52;100.00
4449;BME280;2237;51.870;6.160;2023-04-24T07:04:21;99994.59;;;11.29;100.00
4449;BME280;2237;51.870;6.160;2023-04-24T07:06:48;99994.22;;;11.40;100.00
4449;BME280;2237;51.870;6.160;2023-04-24T07:09:20;99995.00;;;11.42;100.00
4449;BME280;2237;51.870;6.160;2023-04-24T07:11:46;99999.06;;;11.49;100.00
4449;BME280;2237;51.870;6.160;2023-04-24T07:14:13;99996.75;;;11.41;100.00
4449;BME280;2237;51.870;6.160;2023-04-24T07:16:40;100005.16;;;11.49;100.00
4449;BME280;2237;51.870;6.160;2023-04-24T07:19:06;100000.88;;;11.47;100.00
4449;BME280;2237;51.870;6.160;2023-04-24T07:21:33;100011.50;;;11.42;100.00
4449;BME280;2237;51.870;6.160;2023-04-24T07:23:59;100015.69;;;11.46;100.00
4449;BME280;2237;51.870;6.160;2023-04-24T07:26:28;100013.16;;;11.66;100.00
4449;BME280;2237;51.870;6.160;2023-04-24T07:28:54;100017.06;;;11.78;100.00
4449;BME280;2237;51.870;6.160;2023-04-24T07:31:21;100028.19;;;11.81;100.00
4449;BME280;2237;51.870;6.160;2023-04-24T07:33:48;100027.75;;;11.72;100.00
4449;BME280;2237;51.870;6.160;2023-04-24T07:36:15;100033.94;;;11.69;100.00
4449;BME280;2237;51.870;6.160;2023-04-24T07:38:45;100049.47;;;11.72;100.00
4449;BME280;2237;51.870;6.160;2023-04-24T07:41:13;100053.09;;;11.45;100.00
4449;BME280;2237;51.870;6.160;2023-04-24T07:43:40;100051.88;;;11.54;100.00
4449;BME280;2237;51.870;6.160;2023-04-24T07:46:07;100064.59;;;11.40;100.00
4449;BME280;2237;51.870;6.160;2023-04-24T07:48:34;100075.78;;;11.20;100.00
4449;BME280;2237;51.870;6.160;2023-04-24T07:51:01;100077.19;;;11.28;100.00
4449;BME280;2237;51.870;6.160;2023-04-24T07:53:27;100077.53;;;11.19;100.00
4449;BME280;2237;51.870;6.160;2023-04-24T07:55:55;100095.56;;;11.01;100.00
4449;BME280;2237;51.870;6.160;2023-04-24T07:58:22;100091.97;;;11.05;100.00
4449;BME280;2237;51.870;6.160;2023-04-24T08:00:48;100092.28;;;10.96;100.00
4449;BME280;2237;51.870;6.160;2023-04-24T08:03:14;100088.53;;;10.80;100.00
4449;BME280;2237;51.870;6.160;2023-04-24T08:05:44;100100.47;;;10.60;100.00
4449;BME280;2237;51.870;6.160;2023-04-24T08:08:11;100112.88;;;10.78;100.00
4449;BME280;2237;51.870;6.160;2023-04-24T08:10:37;100122.91;;;10.89;100.00
4449;BME280;2237;51.870;6.160;2023-04-24T08:13:03;100117.75;;;10.88;100.00
4449;BME280;2237;51.870;6.160;2023-04-24T08:15:30;100131.41;;;10.69;100.00
4449;BME280;2237;51.870;6.160;2023-04-24T08:17:57;100147.81;;;10.71;100.00
4449;BME280;2237;51.870;6.160;2023-04-24T08:20:24;100155.50;;;10.76;100.00
4449;BME280;2237;51.870;6.160;2023-04-24T08:22:50;100159.97;;;10.71;100.00
4449;BME280;2237;51.870;6.160;2023-04-24T08:25:17;100172.34;;;10.91;100.00
4449;BME280;2237;51.870;6.160;2023-04-24T08:27:45;100174.66;;;11.00;100.00
4449;BME280;2237;51.870;6.160;2023-04-24T08:30:11;100193.09;;;10.94;100.00
4449;BME280;2237;51.870;6.160;2023-04-24T08:32:38;100198.66;;;10.83;100.00
4449;BME280;2237;51.870;6.160;2023-04-24T08:35:04;100212.28;;;10.91;100.00
4449;BME280;2237;51.870;6.160;2023-04-24T08:37:31;100216.09;;;10.81;100.00
4449;BME280;2237;51.870;6.160;2023-04-24T08:39:57;100219.94;;;10.69;100.00
4449;BME280;2237;51.870;6.160;2023-04-24T08:42:24;100223.34;;;10.71;100.00
4449;BME280;2237;51.870;6.160;2023-04-24T08:44:51;100223.78;;;10.58;100.00
4449;BME280;2237;51.870;6.160;2023-04-24T08:47:17;100233.06;;;10.93;100.00
4449;BME280;2237;51.870;6.160;2023-04-24T08:49:47;100238.53;;;10.59;100.00
4449;BME280;2237;51.870;6.160;2023-04-24T08:52:15;100239.59;;;10.80;100.00
4449;BME280;2237;51.870;6.160;2023-04-24T08:54:42;100246.38;;;10.84;100.00
4449;BME280;2237;51.870;6.160;2023-04-24T08:57:11;100251.47;;;10.60;100.00
4449;BME280;2237;51.870;6.160;2023-04-24T08:59:39;100261.03;;;10.60;100.00
4449;BME280;2237;51.870;6.160;2023-04-24T09:02:10;100268.81;;;10.61;100.00
4449;BME280;2237;51.870;6.160;2023-04-24T09:04:37;100273.59;;;10.47;100.00
4449;BME280;2237;51.870;6.160;2023-04-24T09:07:06;100279.50;;;10.52;100.00
4449;BME280;2237;51.870;6.160;2023-04-24T09:09:32;100278.06;;;10.42;100.00
4449;BME280;2237;51.870;6.160;2023-04-24T09:11:59;100293.25;;;10.28;100.00
4449;BME280;2237;51.870;6.160;2023-04-24T09:14:27;100295.16;;;10.23;100.00
4449;BME280;2237;51.870;6.160;2023-04-24T09:16:54;100300.53;;;10.46;100.00
4449;BME280;2237;51.870;6.160;2023-04-24T09:19:20;100310.09;;;10.46;100.00
4449;BME280;2237;51.870;6.160;2023-04-24T09:21:48;100313.53;;;10.17;100.00
4449;BME280;2237;51.870;6.160;2023-04-24T09:24:19;100321.84;;;10.30;100.00
4449;BME280;2237;51.870;6.160;2023-04-24T09:26:49;100319.75;;;10.11;100.00
4449;BME280;2237;51.870;6.160;2023-04-24T09:29:21;100332.63;;;10.17;100.00
4449;BME280;2237;51.870;6.160;2023-04-24T09:31:48;100367.00;;;9.96;100.00
4449;BME280;2237;51.870;6.160;2023-04-24T09:34:18;100343.63;;;10.27;100.00
4449;BME280;2237;51.870;6.160;2023-04-24T09:36:46;100350.94;;;10.13;100.00
4449;BME280;2237;51.870;6.160;2023-04-24T09:39:14;100358.75;;;10.13;100.00
4449;BME280;2237;51.870;6.160;2023-04-24T09:41:51;100367.63;;;10.37;100.00
4449;BME280;2237;51.870;6.160;2023-04-24T09:44:19;100375.66;;;10.29;100.00
4449;BME280;2237;51.870;6.160;2023-04-24T09:46:59;100370.88;;;10.45;100.00
4449;BME280;2237;51.870;6.160;2023-04-24T09:49:28;100376.63;;;10.56;100.00
4449;BME280;2237;51.870;6.160;2023-04-24T09:52:06;100373.13;;;11.12;100.00
4449;BME280;2237;51.870;6.160;2023-04-24T09:54:33;100364.97;;;11.23;100.00
4449;BME280;2237;51.870;6.160;2023-04-24T09:56:59;100384.00;;;11.25;100.00
4449;BME280;2237;51.870;6.160;2023-04-24T09:59:29;100380.94;;;11.12;100.00
4449;BME280;2237;51.870;6.160;2023-04-24T10:01:56;100381.31;;;11.00;100.00
4449;BME280;2237;51.870;6.160;2023-04-24T10:04:26;100388.53;;;11.20;100.00
4449;BME280;2237;51.870;6.160;2023-04-24T10:06:55;100400.03;;;11.13;100.00
4449;BME280;2237;51.870;6.160;2023-04-24T10:09:24;100406.03;;;11.15;100.00
4449;BME280;2237;51.870;6.160;2023-04-24T10:11:52;100409.47;;;11.17;100.00
4449;BME280;2237;51.870;6.160;2023-04-24T10:14:21;100416.91;;;11.55;100.00
4449;BME280;2237;51.870;6.160;2023-04-24T10:16:49;100411.13;;;11.73;100.00
4449;BME280;2237;51.870;6.160;2023-04-24T10:19:16;100416.31;;;11.47;100.00
4449;BME280;2237;51.870;6.160;2023-04-24T10:21:45;100409.03;;;11.57;100.00
4449;BME280;2237;51.870;6.160;2023-04-24T10:24:16;100425.75;;;11.51;100.00
4449;BME280;2237;51.870;6.160;2023-04-24T10:26:44;100426.59;;;11.52;100.00
4449;BME280;2237;51.870;6.160;2023-04-24T10:29:12;100418.88;;;11.21;100.00
4449;BME280;2237;51.870;6.160;2023-04-24T10:31:39;100424.94;;;11.23;100.00
4449;BME280;2237;51.870;6.160;2023-04-24T10:34:06;100433.25;;;11.34;100.00
4449;BME280;2237;51.870;6.160;2023-04-24T10:36:34;100425.56;;;11.56;100.00
4449;BME280;2237;51.870;6.160;2023-04-24T10:39:03;100425.00;;;11.74;100.00
4449;BME280;2237;51.870;6.160;2023-04-24T10:41:32;100423.16;;;11.77;100.00
4449;BME280;2237;51.870;6.160;2023-04-24T10:44:13;100430.41;;;12.43;100.00
4449;BME280;2237;51.870;6.160;2023-04-24T10:46:43;100421.78;;;12.41;100.00
4449;BME280;2237;51.870;6.160;2023-04-24T10:49:10;100426.13;;;12.41;100.00
4449;BME280;2237;51.870;6.160;2023-04-24T10:51:51;100440.00;;;12.66;100.00
4449;BME280;2237;51.870;6.160;2023-04-24T10:54:26;100433.47;;;12.55;100.00
4449;BME280;2237;51.870;6.160;2023-04-24T10:56:53;100444.09;;;12.50;100.00
4449;BME280;2237;51.870;6.160;2023-04-24T10:59:37;100444.44;;;12.64;100.00
4449;BME280;2237;51.870;6.160;2023-04-24T11:02:06;100441.47;;;12.50;100.00
4449;BME280;2237;51.870;6.160;2023-04-24T11:04:33;100447.03;;;12.16;100.00
4449;BME280;2237;51.870;6.160;2023-04-24T11:07:03;100464.03;;;12.53;100.00
4449;BME280;2237;51.870;6.160;2023-04-24T11:09:31;100459.19;;;12.42;100.00
4449;BME280;2237;51.870;6.160;2023-04-24T11:12:05;100480.81;;;12.45;100.00
4449;BME280;2237;51.870;6.160;2023-04-24T11:17:32;100480.66;;;12.50;100.00
4449;BME280;2237;51.870;6.160;2023-04-24T11:20:04;100479.72;;;12.51;100.00
4449;BME280;2237;51.870;6.160;2023-04-24T11:22:55;100475.94;;;12.83;100.00
4449;BME280;2237;51.870;6.160;2023-04-24T11:25:23;100486.16;;;13.35;100.00
4449;BME280;2237;51.870;6.160;2023-04-24T11:28:03;100492.13;;;12.69;100.00
4449;BME280;2237;51.870;6.160;2023-04-24T11:30:30;100495.34;;;12.28;100.00
4449;BME280;2237;51.870;6.160;2023-04-24T11:33:02;100487.06;;;11.90;100.00
4449;BME280;2237;51.870;6.160;2023-04-24T11:35:35;100509.63;;;11.64;100.00
4449;BME280;2237;51.870;6.160;2023-04-24T11:38:03;100510.03;;;11.24;100.00
4449;BME280;2237;51.870;6.160;2023-04-24T11:40:34;100516.09;;;11.52;100.00
4449;BME280;2237;51.870;6.160;2023-04-24T11:43:00;100498.94;;;12.25;100.00
4449;BME280;2237;51.870;6.160;2023-04-24T11:45:28;100507.59;;;12.27;100.00
4449;BME280;2237;51.870;6.160;2023-04-24T11:47:56;100533.16;;;12.16;100.00
4449;BME280;2237;51.870;6.160;2023-04-24T11:50:24;100535.59;;;11.96;100.00
4449;BME280;2237;51.870;6.160;2023-04-24T11:52:55;100549.69;;;11.63;100.00
4449;BME280;2237;51.870;6.160;2023-04-24T11:55:23;100542.91;;;11.57;100.00
4449;BME280;2237;51.870;6.160;2023-04-24T11:57:54;100550.69;;;11.29;100.00
4449;BME280;2237;51.870;6.160;2023-04-24T12:00:27;100530.25;;;11.45;100.00
4449;BME280;2237;51.870;6.160;2023-04-24T12:03:07;100539.72;;;11.75;100.00
4449;BME280;2237;51.870;6.160;2023-04-24T12:06:10;100538.44;;;12.41;100.00
4449;BME280;2237;51.870;6.160;2023-04-24T12:08:38;100535.81;;;12.66;100.00
4449;BME280;2237;51.870;6.160;2023-04-24T12:11:06;100544.91;;;13.27;100.00
4449;BME280;2237;51.870;6.160;2023-04-24T12:13:35;100548.19;;;13.55;100.00
4449;BME280;2237;51.870;6.160;2023-04-24T12:16:03;100552.78;;;13.02;100.00
4449;BME280;2237;51.870;6.160;2023-04-24T12:18:31;100545.44;;;13.13;100.00
4449;BME280;2237;51.870;6.160;2023-04-24T12:21:17;100556.31;;;12.53;100.00
4449;BME280;2237;51.870;6.160;2023-04-24T12:23:47;100567.16;;;12.15;100.00
4449;BME280;2237;51.870;6.160;2023-04-24T12:26:20;100559.31;;;12.41;100.00
4449;BME280;2237;51.870;6.160;2023-04-24T12:28:48;100572.50;;;12.38;100.00
4449;BME280;2237;51.870;6.160;2023-04-24T12:31:16;100581.00;;;11.90;100.00
4449;BME280;2237;51.870;6.160;2023-04-24T12:33:43;100578.06;;;11.73;100.00
4449;BME280;2237;51.870;6.160;2023-04-24T12:36:10;100583.09;;;11.50;100.00
4449;BME280;2237;51.870;6.160;2023-04-24T12:38:39;100580.38;;;11.25;100.00
4449;BME280;2237;51.870;6.160;2023-04-24T12:41:12;100585.03;;;11.44;100.00
4449;BME280;2237;51.870;6.160;2023-04-24T12:43:53;100581.97;;;11.29;100.00
4449;BME280;2237;51.870;6.160;2023-04-24T12:46:20;100596.03;;;11.24;100.00
4449;BME280;2237;51.870;6.160;2023-04-24T12:48:48;100593.38;;;10.96;100.00
4449;BME280;2237;51.870;6.160;2023-04-24T12:51:14;100604.38;;;11.06;100.00
4449;BME280;2237;51.870;6.160;2023-04-24T12:53:41;100605.13;;;11.11;100.00
4449;BME280;2237;51.870;6.160;2023-04-24T12:56:08;100621.06;;;11.29;100.00
4449;BME280;2237;51.870;6.160;2023-04-24T12:58:34;100614.81;;;11.37;100.00
4449;BME280;2237;51.870;6.160;2023-04-24T13:01:00;100612.25;;;11.04;100.00
4449;BME280;2237;51.870;6.160;2023-04-24T13:03:27;100627.69;;;10.80;100.00
4449;BME280;2237;51.870;6.160;2023-04-24T13:05:53;100636.63;;;10.69;100.00
4449;BME280;2237;51.870;6.160;2023-04-24T13:08:20;100638.28;;;10.73;100.00
4449;BME280;2237;51.870;6.160;2023-04-24T13:10:46;100654.63;;;10.45;100.00